Monday, December 5, 2016, 11:34 AM EST
Back to Local

KMTP, Montauk Airport

Location: Montauk, NY, United States Lat: 41.067
Local Time: 11:34 AM EST (16:34 GMT) Lon: -71.917
Time Zone: US/Eastern Elev: 6 ft

Show me the last for .
Show Coded

Time T Td Feel RH Dir Speed Gust Alt SLP Vis Weather Sky Remarks
2016-12-05 10:54 46 45 44 95 230° 5 - 29.98 29.98 0 1-hr Precip Total: 0.03"
2016-12-05 09:54 45 43 42 92 200° 6 - 30.02 30.01 0 1-hr Precip Total: 0.02"
6-hr Precip Total (10am): 0.04"
2016-12-05 08:54 44 41 42 88 Variable 5 - 30.01 30.01 0 1-hr Precip Total: 0.01"
2016-12-05 07:54 43 40 40 88 Variable 5 - 30.02 30.02 0 1-hr Precip Total: 0.01"
2016-12-05 06:54 41 39 39 92 Variable 3 - 30.03 30.03 0 1-hr Precip Total: 0.03"
6-hr Precip Total (7am): 0.05"
24-hr Precip Total (7am): 0.05"
6-hr Min Temp (7am): 34.0°F
6-hr Max Temp (7am): 45.0°F
2016-12-05 05:54 41 38 32 88 200° 9 17 30.07 30.06 0 1-hr Precip Total: 0.02"
2016-12-05 04:54 44 35 40 70 170° 7 - 30.08 30.08 0 None
2016-12-05 03:54 44 33 42 65 180° 5 - 30.11 30.10 0 None
2016-12-05 02:54 43 31 40 62 Variable 5 - 30.10 30.10 0 None
2016-12-05 01:54 37 28 - 69 - Calm - 30.13 30.12 0 None
2016-12-05 00:54 34 27 - 75 - Calm - 30.14 30.14 0 6-hr Min Temp (1am): 30.9°F
6-hr Max Temp (1am): 39.0°F
2016-12-04 23:54 34 26 - 72 - Calm - 30.15 30.15 0 24-hr Min Temp (12am): 30.9°F
24-hr Max Temp (12am): 42.1°F
2016-12-04 22:54 35 25 - 66 - Calm - 30.17 30.16 0 None
2016-12-04 21:54 34 24 - 66 - Calm - 30.19 30.19 0 None
2016-12-04 20:54 38 23 36 54 20° 3 - 30.20 30.19 0 None
2016-12-04 19:54 34 23 31 63 40° 3 - 30.20 30.20 0 None
2016-12-04 18:54 38 22 - 52 - Calm - 30.21 30.21 0 6-hr Min Temp (7pm): 35.1°F
6-hr Max Temp (7pm): 42.1°F
2016-12-04 17:54 40 22 38 48 330° 3 - 30.21 30.20 0 None
2016-12-04 16:54 40 22 38 48 350° 3 - 30.20 30.20 0 None
2016-12-04 15:54 41 22 36 46 330° 7 - 30.19 30.19 0 None
2016-12-04 14:54 42 22 37 44 330° 8 - 30.19 30.18 0 None
2016-12-04 13:54 42 22 38 44 320° 7 - 30.18 30.18 0 None
2016-12-04 12:54 41 22 35 46 320° 9 - 30.18 30.17 0 6-hr Min Temp (1pm): 36.0°F
6-hr Max Temp (1pm): 41.0°F
2016-12-04 11:54 40 22 33 48 310° 12 - 30.19 30.19 0 None

Support USWX by starting your Amazon purchase here.